Time;durP1;ratioP1;P1;durP2;ratioP2;P2;SDS_P1;SDS_P2;PMS_P1;PMS_P2;Temp;Humidity;BMP_temperature;BMP_pressure;BME280_temperature;BME280_humidity;BME280_pressure;Samples;Min_cycle;Max_cycle;Signal;HPM_P1;HPM_P2
2023/03/20 00:01:42;;;;;;;39.75;27.83;;;;;;;10.66;72.27;99578.03;5051770;28;20680;-74
2023/03/20 00:04:08;;;;;;;39.92;28.63;;;;;;;10.56;72.53;99558.53;5052057;28;20063;-74
2023/03/20 00:06:34;;;;;;;42.15;28.70;;;;;;;10.66;72.49;99578.03;5051519;28;20032;-74
2023/03/20 00:09:01;;;;;;;39.38;27.38;;;;;;;10.55;72.62;99558.63;5051897;28;20349;-74
2023/03/20 00:11:29;;;;;;;37.33;27.67;;;;;;;10.68;72.90;99578.78;5051764;28;20064;-74
2023/03/20 00:14:01;;;;;;;35.85;26.38;;;;;;;10.64;72.78;99577.25;5051445;28;20036;-74
2023/03/20 00:16:33;;;;;;;40.40;27.13;;;;;;;10.54;73.11;99555.16;5050416;28;20072;-74
2023/03/20 00:18:58;;;;;;;34.60;25.77;;;;;;;10.49;73.33;99546.72;5051712;28;20025;-74
2023/03/20 00:21:24;;;;;;;39.70;27.20;;;;;;;10.71;73.53;99581.25;5051716;28;20025;-74
2023/03/20 00:23:49;;;;;;;36.00;25.98;;;;;;;10.56;73.67;99555.09;5051267;28;20021;-74
2023/03/20 00:26:19;;;;;;;38.95;26.75;;;;;;;10.69;73.54;99574.41;5051591;28;20040;-74
2023/03/20 00:28:46;;;;;;;38.85;28.23;;;;;;;10.69;73.91;99577.84;5051321;28;20594;-74
2023/03/20 00:31:24;;;;;;;38.17;26.77;;;;;;;10.71;73.88;99581.25;5051702;28;20025;-74
2023/03/20 00:33:49;;;;;;;39.28;28.65;;;;;;;10.59;74.24;99560.16;5051390;28;20029;-74
2023/03/20 00:36:15;;;;;;;39.08;28.08;;;;;;;10.62;74.13;99562.59;5051616;28;20423;-74
2023/03/20 00:38:40;;;;;;;40.88;29.85;;;;;;;10.58;74.51;99555.88;5051356;28;20025;-74
2023/03/20 00:41:29;;;;;;;37.33;28.27;;;;;;;10.67;74.46;99581.47;5051331;28;20029;-74
2023/03/20 00:43:58;;;;;;;38.90;29.73;;;;;;;10.53;74.54;99545.66;5051251;28;20025;-74
2023/03/20 00:46:24;;;;;;;39.28;28.63;;;;;;;10.66;74.56;99564.13;5050155;28;20036;-74
2023/03/20 00:48:49;;;;;;;36.95;27.60;;;;;;;10.59;74.61;99547.13;5051214;28;20056;-74
2023/03/20 00:51:15;;;;;;;39.90;29.45;;;;;;;10.62;75.20;99562.59;5051348;28;20040;-74
2023/03/20 00:53:41;;;;;;;41.40;30.17;;;;;;;10.56;75.29;99550.72;5051276;28;20500;-74
2023/03/20 00:56:22;;;;;;;42.58;30.08;;;;;;;10.43;75.55;99526.19;5051477;28;20064;-74
2023/03/20 00:58:47;;;;;;;43.08;29.63;;;;;;;10.68;75.73;99568.34;5050997;28;20493;-74
2023/03/20 01:01:13;;;;;;;40.33;28.58;;;;;;;10.58;76.03;99554.09;5051732;28;20025;-74
2023/03/20 01:03:38;;;;;;;43.35;30.33;;;;;;;10.62;76.43;99549.56;5051092;28;20033;-74
2023/03/20 01:06:04;;;;;;;39.13;29.20;;;;;;;10.59;76.63;99547.13;5049900;28;20504;-74
2023/03/20 01:08:29;;;;;;;41.45;28.85;;;;;;;10.57;76.87;99535.94;5053051;28;20033;-74
2023/03/20 01:10:57;;;;;;;39.15;27.75;;;;;;;10.46;77.04;99523.44;5054982;28;20032;-74
2023/03/20 01:13:25;;;;;;;38.85;28.45;;;;;;;10.69;77.77;99558.78;5054867;28;20033;-74
2023/03/20 01:15:52;;;;;;;33.85;26.27;;;;;;;10.74;77.97;99569.81;5054631;28;20424;-74
2023/03/20 01:18:20;;;;;;;34.28;26.10;;;;;;;10.55;77.93;99545.59;5054507;28;20049;-74
2023/03/20 01:20:46;;;;;;;31.77;25.50;;;;;;;10.71;78.38;99573.44;5054395;28;20086;-74
2023/03/20 01:23:12;;;;;;;33.83;25.13;;;;;;;10.68;78.77;99567.53;5054644;28;20032;-74
2023/03/20 01:25:38;;;;;;;36.13;26.50;;;;;;;10.61;79.14;99560.91;5054602;28;20079;-74
2023/03/20 01:28:18;;;;;;;34.30;25.08;;;;;;;10.64;79.21;99569.44;5054764;28;20388;-74
2023/03/20 01:30:46;;;;;;;30.63;24.17;;;;;;;10.68;79.31;99568.34;5054444;28;20021;-74
2023/03/20 01:33:17;;;;;;;36.50;26.25;;;;;;;10.68;79.69;99565.75;5054386;28;20423;-74
2023/03/20 01:35:44;;;;;;;33.63;24.83;;;;;;;10.62;80.12;99559.97;5054384;28;20025;-74
2023/03/20 01:38:23;;;;;;;37.92;25.42;;;;;;;10.54;81.04;99562.97;5054467;28;20029;-74
2023/03/20 01:41:00;;;;;;;40.42;26.33;;;;;;;10.67;81.45;99568.44;5054141;28;20056;-74
2023/03/20 01:43:27;;;;;;;38.13;28.15;;;;;;;10.56;82.01;99563.75;5054133;28;20113;-74
2023/03/20 01:46:01;;;;;;;41.22;29.80;;;;;;;10.54;82.80;99569.97;5054244;28;20112;-74
2023/03/20 01:48:54;;;;;;;41.22;29.35;;;;;;;10.55;83.27;99572.47;5054206;28;20062;-74
2023/03/20 01:51:25;;;;;;;40.80;29.42;;;;;;;10.55;83.70;99574.25;5054020;28;20111;-74
2023/03/20 01:54:20;;;;;;;40.72;27.88;;;;;;;10.55;83.72;99574.25;5053807;28;20098;-74
2023/03/20 01:56:53;;;;;;;37.53;27.58;;;;;;;10.40;84.23;99548.00;5031472;28;20041;-74
2023/03/20 01:59:25;;;;;;;38.60;25.13;;;;;;;10.56;84.59;99576.75;5031627;28;20541;-74
2023/03/20 02:01:51;;;;;;;37.67;25.58;;;;;;;10.55;85.03;99576.84;5031276;28;20505;-74
2023/03/20 02:04:19;;;;;;;35.63;25.17;;;;;;;10.60;85.10;99580.06;5031407;28;20044;-74
2023/03/20 02:06:44;;;;;;;32.17;25.50;;;;;;;10.61;85.08;99572.16;5031153;28;20026;-74
2023/03/20 02:09:11;;;;;;;30.35;23.40;;;;;;;10.45;85.08;99540.84;5031443;28;20124;-74
2023/03/20 02:11:39;;;;;;;36.40;25.30;;;;;;;10.65;85.40;99575.47;5031658;28;20033;-74
2023/03/20 02:14:05;;;;;;;31.83;26.00;;;;;;;10.65;85.76;99570.25;5031312;28;20551;-74
2023/03/20 02:16:31;;;;;;;33.50;25.35;;;;;;;10.67;85.78;99573.66;5031067;28;20162;-74
2023/03/20 02:18:57;;;;;;;31.00;23.73;;;;;;;10.67;86.04;99577.09;5030627;28;20053;-74
2023/03/20 02:21:55;;;;;;;32.85;25.15;;;;;;;10.65;86.17;99565.06;5030970;28;20049;-74
2023/03/20 02:25:14;;;;;;;31.90;25.63;;;;;;;10.63;87.08;99570.34;5031109;28;20037;-74
2023/03/20 02:28:31;;;;;;;35.80;25.15;;;;;;;10.45;88.16;99542.59;4952754;29;20047;-74
2023/03/20 02:31:20;;;;;;;36.22;27.00;;;;;;;10.59;89.17;99575.78;4952727;29;20043;-74
2023/03/20 02:34:10;;;;;;;35.92;25.52;;;;;;;10.40;90.05;99540.19;4972557;28;20510;-74
2023/03/20 02:36:41;;;;;;;32.83;25.00;;;;;;;10.60;92.01;99574.84;4991573;28;20034;-74
2023/03/20 02:39:44;;;;;;;34.80;26.33;;;;;;;10.58;93.05;99567.13;4991554;28;20050;-74
2023/03/20 02:42:27;;;;;;;34.45;27.15;;;;;;;10.46;93.93;99546.88;4991457;28;20122;-74
2023/03/20 02:45:14;;;;;;;36.35;27.42;;;;;;;10.52;95.05;99562.19;4991129;28;20038;-74
2023/03/20 02:47:54;;;;;;;36.20;28.15;;;;;;;10.47;95.82;99569.38;4991339;28;20121;-74
2023/03/20 02:50:32;;;;;;;36.25;26.88;;;;;;;10.47;96.24;99569.38;4991298;28;20048;-74
2023/03/20 02:53:51;;;;;;;34.92;27.80;;;;;;;10.42;96.82;99563.56;4991182;28;20113;-74
2023/03/20 02:56:42;;;;;;;30.80;27.02;;;;;;;10.40;97.46;99566.22;4952523;28;20079;-73
2023/03/20 02:59:33;;;;;;;31.75;26.90;;;;;;;10.22;97.70;99539.25;4952688;28;20075;-74
2023/03/20 03:02:06;;;;;;;34.10;27.25;;;;;;;10.27;97.86;99541.69;4952154;28;20407;-74
2023/03/20 03:04:36;;;;;;;35.97;28.40;;;;;;;10.36;97.86;99556.88;4993989;28;20076;-74
2023/03/20 03:07:05;;;;;;;34.40;27.65;;;;;;;10.15;98.50;99526.59;5010374;28;20038;-74
2023/03/20 03:09:45;;;;;;;31.23;27.13;;;;;;;10.21;98.45;99537.59;5010251;28;20091;-74
2023/03/20 03:12:18;;;;;;;35.70;28.40;;;;;;;10.33;98.54;99551.81;5010527;28;20045;-74
2023/03/20 03:14:47;;;;;;;35.28;26.77;;;;;;;10.32;99.13;99554.47;5010279;28;20044;-74
2023/03/20 03:17:15;;;;;;;32.92;27.50;;;;;;;10.23;99.22;99542.72;5010133;28;20057;-74
2023/03/20 03:19:46;;;;;;;36.25;29.92;;;;;;;10.19;99.38;99544.59;5010484;28;20045;-74
2023/03/20 03:22:12;;;;;;;37.88;30.95;;;;;;;10.21;99.81;99552.38;5010335;28;20072;-74
2023/03/20 03:24:43;;;;;;;37.38;30.88;;;;;;;10.28;99.84;99569.44;5010161;28;20109;-73
2023/03/20 03:27:20;;;;;;;36.35;29.88;;;;;;;10.12;100.00;99545.81;5010283;28;20034;-74
2023/03/20 03:29:54;;;;;;;34.72;28.05;;;;;;;10.25;100.00;99561.75;5010214;28;20685;-74
2023/03/20 03:32:33;;;;;;;36.50;29.23;;;;;;;9.99;99.77;99527.34;5045312;28;20080;-73
2023/03/20 03:35:00;;;;;;;33.10;27.42;;;;;;;10.21;99.75;99557.56;5051957;28;20040;-73
2023/03/20 03:37:47;;;;;;;34.00;27.52;;;;;;;10.07;99.84;99533.91;5052222;28;20377;-74
2023/03/20 03:40:27;;;;;;;34.03;28.48;;;;;;;10.03;100.00;99528.03;5052055;28;20043;-73
2023/03/20 03:43:06;;;;;;;34.80;28.50;;;;;;;10.18;100.00;99550.72;5052099;28;20032;-74
2023/03/20 03:45:37;;;;;;;38.90;30.35;;;;;;;10.18;100.00;99549.91;5052082;28;20033;-74
2023/03/20 03:48:12;;;;;;;36.47;28.75;;;;;;;10.17;100.00;99556.88;5051917;28;20021;-74
2023/03/20 03:50:47;;;;;;;38.55;29.77;;;;;;;10.07;100.00;99528.72;5051876;28;20025;-73
2023/03/20 03:53:14;;;;;;;31.70;27.00;;;;;;;10.05;100.00;99528.81;5052123;28;20068;-74
2023/03/20 03:55:48;;;;;;;36.03;28.98;;;;;;;10.07;100.00;99526.13;5052002;28;20029;-73
2023/03/20 03:58:23;;;;;;;36.88;29.40;;;;;;;10.18;100.00;99555.09;5051966;28;20029;-74
2023/03/20 04:00:53;;;;;;;34.67;28.05;;;;;;;10.02;100.00;99521.13;5051548;28;20471;-74
2023/03/20 04:03:22;;;;;;;35.67;28.60;;;;;;;10.14;100.00;99549.19;5051671;28;20638;-74
2023/03/20 04:05:53;;;;;;;35.55;27.10;;;;;;;9.99;100.00;99524.72;5051738;28;20717;-73
2023/03/20 04:08:18;;;;;;;32.45;28.17;;;;;;;10.12;100.00;99553.63;5051919;28;20025;-74
2023/03/20 04:10:44;;;;;;;33.65;28.88;;;;;;;9.95;100.00;99523.19;5051809;28;20091;-74
2023/03/20 04:13:10;;;;;;;34.33;29.85;;;;;;;10.08;100.00;99553.84;5051541;28;20032;-74
2023/03/20 04:15:37;;;;;;;36.17;28.52;;;;;;;9.99;100.00;99537.75;5051732;28;20025;-74
2023/03/20 04:18:03;;;;;;;36.47;29.83;;;;;;;10.10;100.00;99557.22;5051654;28;20048;-74
2023/03/20 04:20:28;;;;;;;33.85;29.90;;;;;;;9.99;100.00;99544.72;5051778;28;20021;-74
2023/03/20 04:22:54;;;;;;;34.22;30.33;;;;;;;9.96;100.00;99535.28;5051264;28;20436;-74
2023/03/20 04:25:22;;;;;;;37.03;30.85;;;;;;;10.03;100.00;99546.25;5051529;28;20024;-74
2023/03/20 04:27:47;;;;;;;34.88;30.60;;;;;;;9.93;100.00;99539.78;5051262;28;20021;-74
2023/03/20 04:30:13;;;;;;;37.10;30.63;;;;;;;10.04;100.00;99557.50;5051436;28;20086;-74
2023/03/20 04:32:38;;;;;;;32.72;28.85;;;;;;;9.86;100.00;99540.94;5051642;28;20036;-74
2023/03/20 04:35:05;;;;;;;34.90;29.05;;;;;;;9.85;100.00;99537.50;5051460;28;20087;-74
2023/03/20 04:37:31;;;;;;;36.03;28.23;;;;;;;9.98;100.00;99563.81;5051548;28;20060;-74
2023/03/20 04:39:57;;;;;;;35.25;30.50;;;;;;;9.88;100.00;99558.19;5051251;28;20083;-74
2023/03/20 04:42:22;;;;;;;36.20;29.85;;;;;;;9.97;100.00;99565.56;5051535;28;20029;-77
2023/03/20 04:44:47;;;;;;;37.97;32.03;;;;;;;9.83;100.00;99543.72;5055211;28;20555;-77
2023/03/20 04:47:13;;;;;;;36.55;30.52;;;;;;;9.80;100.00;99536.03;5054154;28;20435;-77
2023/03/20 04:49:38;;;;;;;38.60;33.40;;;;;;;9.86;100.00;99541.81;5055349;28;20056;-77
2023/03/20 04:52:03;;;;;;;37.92;32.40;;;;;;;9.99;100.00;99568.97;5055111;28;20029;-77
2023/03/20 04:54:29;;;;;;;38.78;32.60;;;;;;;9.85;100.00;99555.72;5055103;28;20484;-77
2023/03/20 04:56:54;;;;;;;43.45;32.97;;;;;;;9.83;100.00;99544.56;5054826;28;20594;-77
2023/03/20 04:59:20;;;;;;;37.92;32.63;;;;;;;10.00;100.00;99572.41;5054848;28;20028;-77
2023/03/20 05:01:45;;;;;;;43.83;35.45;;;;;;;9.69;100.00;99520.91;5055203;28;20029;-77
2023/03/20 05:04:10;;;;;;;39.15;33.75;;;;;;;9.88;100.00;99565.16;5054685;28;20488;-77
2023/03/20 05:06:36;;;;;;;40.80;33.70;;;;;;;9.79;100.00;99547.38;5055030;28;20036;-77
2023/03/20 05:09:01;;;;;;;39.83;34.38;;;;;;;9.89;100.00;99565.06;5054753;28;20029;-77
2023/03/20 05:11:27;;;;;;;38.67;33.17;;;;;;;9.96;100.00;99565.66;5054891;28;20430;-77
2023/03/20 05:13:53;;;;;;;41.60;33.22;;;;;;;9.79;100.00;99542.16;5054494;28;20452;-77
2023/03/20 05:16:18;;;;;;;44.10;35.88;;;;;;;9.89;100.00;99557.28;5054775;28;20151;-77
2023/03/20 05:18:44;;;;;;;42.90;35.83;;;;;;;9.85;100.00;99555.72;5054880;28;20063;-77
2023/03/20 05:21:09;;;;;;;46.22;37.13;;;;;;;9.82;100.00;99549.81;5054521;28;20037;-77
2023/03/20 05:23:35;;;;;;;44.70;36.70;;;;;;;9.82;100.00;99552.41;5054966;28;20029;-77
2023/03/20 05:26:00;;;;;;;48.38;39.00;;;;;;;9.83;100.00;99561.94;5054675;28;20032;-77
2023/03/20 05:28:26;;;;;;;43.08;37.67;;;;;;;9.79;100.00;99557.78;5054584;28;20021;-77
2023/03/20 05:30:52;;;;;;;44.42;36.78;;;;;;;9.93;100.00;99581.41;5054236;28;20025;-77
2023/03/20 05:33:17;;;;;;;47.58;39.92;;;;;;;9.95;100.00;99590.00;5054498;28;20036;-77
2023/03/20 05:35:42;;;;;;;48.13;37.92;;;;;;;9.87;100.00;99568.69;5054501;28;20384;-77
2023/03/20 05:38:08;;;;;;;49.92;40.90;;;;;;;9.95;100.00;99588.22;5054175;28;20021;-77
2023/03/20 05:40:33;;;;;;;51.72;41.05;;;;;;;9.67;100.00;99541.78;5054323;28;20036;-77
2023/03/20 05:42:58;;;;;;;50.08;41.28;;;;;;;9.95;100.00;99596.03;5052592;28;20435;-77
2023/03/20 05:45:24;;;;;;;51.20;41.50;;;;;;;9.79;100.00;99571.63;5054532;28;20041;-77
2023/03/20 05:47:49;;;;;;;53.90;43.03;;;;;;;9.78;100.00;99574.31;5054281;28;20032;-77
2023/03/20 05:50:15;;;;;;;53.90;44.25;;;;;;;9.82;100.00;99576.69;5054062;28;20535;-77
2023/03/20 05:52:40;;;;;;;51.67;43.55;;;;;;;9.87;100.00;99589.50;5054041;28;20476;-77
2023/03/20 05:55:06;;;;;;;56.63;48.45;;;;;;;9.84;100.00;99587.03;5052493;28;20033;-77
2023/03/20 05:57:31;;;;;;;61.75;47.65;;;;;;;9.63;100.00;99568.00;5054197;28;20104;-77
2023/03/20 05:59:57;;;;;;;55.88;45.92;;;;;;;9.66;100.00;99570.47;5053584;28;20021;-77
2023/03/20 06:02:22;;;;;;;63.05;46.33;;;;;;;9.65;100.00;99574.84;5053856;28;20052;-77
2023/03/20 06:04:47;;;;;;;54.75;46.78;;;;;;;9.64;100.00;99573.13;5053917;28;20025;-77
2023/03/20 06:07:13;;;;;;;57.65;48.53;;;;;;;9.84;100.00;99595.66;5053402;28;20032;-77
2023/03/20 06:09:38;;;;;;;57.00;46.35;;;;;;;9.71;100.00;99574.56;5054011;28;20468;-77
2023/03/20 06:12:03;;;;;;;59.30;46.22;;;;;;;9.90;100.00;99604.94;5053489;28;20076;-77
2023/03/20 06:14:29;;;;;;;51.65;43.10;;;;;;;9.87;100.00;99597.28;5053569;28;20060;-77
2023/03/20 06:16:55;;;;;;;56.35;46.78;;;;;;;9.77;100.00;99583.81;5053304;28;20099;-77
2023/03/20 06:19:21;;;;;;;56.00;46.95;;;;;;;9.91;100.00;99606.66;5053700;28;20025;-77
2023/03/20 06:21:47;;;;;;;50.17;44.70;;;;;;;9.96;100.00;99610.72;5053600;28;20116;-77
2023/03/20 06:24:12;;;;;;;54.28;45.65;;;;;;;9.94;100.00;99614.28;5053148;28;20028;-77
2023/03/20 06:26:38;;;;;;;53.22;43.83;;;;;;;9.88;100.00;99592.00;5053408;28;20029;-77
2023/03/20 06:29:03;;;;;;;51.55;45.22;;;;;;;9.76;100.00;99579.53;5051782;28;20072;-77
2023/03/20 06:31:28;;;;;;;50.88;43.15;;;;;;;10.02;100.00;99614.81;5053452;28;20028;-77
2023/03/20 06:33:54;;;;;;;52.17;44.90;;;;;;;10.10;100.00;99625.72;5053676;28;20500;-77
2023/03/20 06:36:19;;;;;;;58.53;46.88;;;;;;;9.97;100.00;99599.41;5053022;28;20060;-77
2023/03/20 06:38:45;;;;;;;61.03;49.05;;;;;;;10.08;100.00;99626.72;5053229;28;20059;-77
2023/03/20 06:41:10;;;;;;;59.72;48.85;;;;;;;9.86;100.00;99604.25;5052943;28;20205;-77
2023/03/20 06:43:36;;;;;;;63.00;51.90;;;;;;;9.74;100.00;99603.03;5053475;28;20028;-77
2023/03/20 06:46:01;;;;;;;63.92;51.67;;;;;;;9.68;100.00;99597.25;5053096;28;20033;-77
2023/03/20 06:48:27;;;;;;;63.05;51.50;;;;;;;9.63;100.00;99596.59;5053158;28;20100;-77
2023/03/20 06:50:52;;;;;;;66.93;51.88;;;;;;;9.62;100.00;99598.38;5053241;28;20389;-77
2023/03/20 06:53:17;;;;;;;63.10;50.60;;;;;;;9.84;100.00;99619.06;5052567;28;20017;-77
2023/03/20 06:55:47;;;;;;;62.45;51.22;;;;;;;9.88;100.00;99625.84;5053174;28;20502;-77
2023/03/20 06:58:12;;;;;;;56.85;48.63;;;;;;;9.87;100.00;99618.94;5051341;28;20025;-76
2023/03/20 07:00:38;;;;;;;54.28;48.22;;;;;;;9.92;100.00;99613.53;5052689;28;20112;-77
2023/03/20 07:03:03;;;;;;;57.13;47.47;;;;;;;10.04;100.00;99628.59;5049963;28;20032;-77
2023/03/20 07:05:29;;;;;;;53.33;45.30;;;;;;;9.97;100.00;99601.16;5041982;28;20033;-77
2023/03/20 07:07:54;;;;;;;52.97;44.65;;;;;;;10.01;100.00;99607.91;5040264;28;20465;-77
2023/03/20 07:10:19;;;;;;;48.83;43.35;;;;;;;10.18;100.00;99621.00;5052197;28;20079;-77
2023/03/20 07:12:45;;;;;;;45.78;40.22;;;;;;;10.23;100.00;99631.22;5052438;28;20491;-77
2023/03/20 07:15:11;;;;;;;47.92;40.90;;;;;;;10.18;100.00;99613.19;5034088;28;20079;-76
2023/03/20 07:17:36;;;;;;;45.88;39.10;;;;;;;10.18;100.00;99604.56;5032656;28;20489;-76
2023/03/20 07:20:03;;;;;;;42.25;36.63;;;;;;;10.34;100.00;99621.19;5032650;28;20032;-77
2023/03/20 07:22:30;;;;;;;46.60;39.85;;;;;;;10.46;100.00;99636.25;5032341;28;20530;-77
2023/03/20 07:24:56;;;;;;;43.17;35.85;;;;;;;10.37;100.00;99623.66;5032396;28;20045;-77
2023/03/20 07:27:22;;;;;;;41.90;35.55;;;;;;;10.39;100.00;99619.22;5032072;28;20422;-77
2023/03/20 07:29:47;;;;;;;47.03;37.72;;;;;;;10.45;100.00;99626.75;5032441;28;20104;-77
2023/03/20 07:32:12;;;;;;;44.80;36.08;;;;;;;10.41;100.00;99611.34;5032002;28;20030;-77
2023/03/20 07:34:38;;;;;;;37.35;33.17;;;;;;;10.58;100.00;99620.97;5032332;28;20068;-77
2023/03/20 07:37:03;;;;;;;41.08;33.30;;;;;;;10.78;100.00;99641.69;5031958;28;20116;-77
2023/03/20 07:39:29;;;;;;;39.90;34.30;;;;;;;10.75;100.00;99626.22;5032116;28;20393;-77
2023/03/20 07:41:54;;;;;;;37.42;32.35;;;;;;;10.88;100.00;99648.16;5032053;28;20032;-77
2023/03/20 07:44:20;;;;;;;39.05;32.53;;;;;;;10.80;100.00;99628.63;5031766;28;20025;-77
2023/03/20 07:46:48;;;;;;;38.95;34.75;;;;;;;10.97;100.00;99647.72;5032236;28;20042;-77
2023/03/20 07:49:17;;;;;;;41.95;37.15;;;;;;;10.92;100.00;99638.44;5031936;28;20022;-77
2023/03/20 07:51:46;;;;;;;43.10;36.92;;;;;;;10.98;100.00;99649.41;5032162;28;20065;-77
2023/03/20 07:54:12;;;;;;;44.15;37.47;;;;;;;10.86;100.00;99625.69;5032058;28;20392;-77
2023/03/20 07:56:37;;;;;;;45.15;39.95;;;;;;;10.94;100.00;99647.03;5032054;28;20033;-77
2023/03/20 07:59:03;;;;;;;47.15;40.97;;;;;;;10.95;100.00;99654.75;5031953;28;20045;-77
2023/03/20 08:01:28;;;;;;;50.35;43.35;;;;;;;10.95;100.00;99653.91;5032135;28;20254;-77
2023/03/20 08:03:54;;;;;;;49.72;43.53;;;;;;;10.80;100.00;99636.44;5032044;28;20043;-77
2023/03/20 08:06:19;;;;;;;50.67;43.25;;;;;;;10.88;100.00;99650.78;5031685;28;20072;-77
2023/03/20 08:08:45;;;;;;;52.90;45.60;;;;;;;10.86;100.00;99646.53;5030583;28;20388;-77
2023/03/20 08:11:11;;;;;;;52.17;43.60;;;;;;;10.91;100.00;99661.06;5031776;28;20036;-77
2023/03/20 08:13:36;;;;;;;52.10;46.15;;;;;;;10.84;100.00;99638.81;5032231;28;20034;-77
2023/03/20 08:16:02;;;;;;;46.75;40.72;;;;;;;10.98;100.00;99651.16;5032028;28;20032;-77
2023/03/20 08:18:28;;;;;;;45.67;39.92;;;;;;;11.06;100.00;99653.41;5033773;28;20045;-77
2023/03/20 08:20:53;;;;;;;42.55;37.42;;;;;;;10.97;100.00;99637.31;5035880;28;20519;-77
2023/03/20 08:23:18;;;;;;;48.95;39.10;;;;;;;11.05;100.00;99649.13;5035531;28;20025;-77
2023/03/20 08:25:53;;;;;;;41.90;36.28;;;;;;;10.95;100.00;99628.69;5035571;28;20025;-76
2023/03/20 08:28:19;;;;;;;40.00;34.75;;;;;;;11.06;100.00;99640.38;5035710;28;20454;-77
2023/03/20 08:30:44;;;;;;;44.72;36.10;;;;;;;11.19;100.00;99657.09;5035743;28;20022;-77
2023/03/20 08:33:10;;;;;;;44.45;39.33;;;;;;;10.97;100.00;99628.63;5035349;28;20035;-77
2023/03/20 08:35:36;;;;;;;47.80;36.72;;;;;;;11.13;100.00;99654.81;5035622;28;20362;-77
2023/03/20 08:38:02;;;;;;;43.60;36.42;;;;;;;11.18;100.00;99658.03;5035458;28;20108;-77
2023/03/20 08:40:28;;;;;;;44.72;37.15;;;;;;;11.04;100.00;99637.84;5035731;28;20033;-77
2023/03/20 08:42:53;;;;;;;44.38;34.97;;;;;;;11.11;100.00;99654.88;5035571;28;20090;-77
2023/03/20 08:45:18;;;;;;;43.38;37.15;;;;;;;11.00;100.00;99636.31;5035205;28;20419;-77
2023/03/20 08:47:47;;;;;;;37.13;32.33;;;;;;;11.15;100.00;99655.56;5035502;28;20466;-77
2023/03/20 08:50:13;;;;;;;36.97;32.20;;;;;;;11.10;100.00;99641.91;5035191;28;20514;-77
2023/03/20 08:52:42;;;;;;;34.60;30.75;;;;;;;11.09;100.00;99635.03;5035286;28;20329;-77
2023/03/20 08:55:11;;;;;;;33.15;28.80;;;;;;;11.26;100.00;99660.28;5035191;28;20026;-77
2023/03/20 08:57:37;;;;;;;38.13;32.90;;;;;;;11.29;100.00;99662.69;5035242;28;20029;-77
2023/03/20 09:00:05;;;;;;;35.75;31.23;;;;;;;11.27;100.00;99656.72;5035129;28;20021;-77
2023/03/20 09:02:31;;;;;;;37.05;32.05;;;;;;;11.22;100.00;99638.72;5035150;28;20029;-77
2023/03/20 09:04:56;;;;;;;35.22;31.23;;;;;;;11.42;100.00;99664.66;5035007;28;20021;-77
2023/03/20 09:07:21;;;;;;;37.40;31.75;;;;;;;11.36;100.00;99653.66;5034759;28;20049;-77
2023/03/20 09:09:47;;;;;;;34.33;30.00;;;;;;;11.54;100.00;99668.38;5035226;28;20044;-77
2023/03/20 09:12:12;;;;;;;34.25;30.20;;;;;;;11.55;100.00;99669.25;5034993;28;20452;-77
2023/03/20 09:14:38;;;;;;;33.17;29.67;;;;;;;11.56;100.00;99669.16;5035353;28;20033;-77
2023/03/20 09:17:03;;;;;;;32.85;28.27;;;;;;;11.49;100.00;99649.53;5035016;28;20080;-76
2023/03/20 09:19:29;;;;;;;33.60;29.70;;;;;;;11.60;100.00;99662.88;5033396;28;20018;-77
2023/03/20 09:21:54;;;;;;;32.38;29.02;;;;;;;11.60;100.00;99662.03;5034676;28;20040;-77
2023/03/20 09:24:19;;;;;;;34.30;30.63;;;;;;;11.54;100.00;99663.16;5034432;28;20025;-77
2023/03/20 09:26:45;;;;;;;35.97;30.15;;;;;;;11.44;100.00;99646.31;5034926;28;20091;-77
2023/03/20 09:29:10;;;;;;;36.80;32.40;;;;;;;11.46;100.00;99640.09;5034184;28;20033;-77
2023/03/20 09:31:35;;;;;;;36.72;32.50;;;;;;;11.58;100.00;99658.66;5034783;28;20456;-77
2023/03/20 09:34:01;;;;;;;34.92;30.88;;;;;;;11.56;100.00;99650.91;5034780;28;20473;-77
2023/03/20 09:36:26;;;;;;;36.35;32.47;;;;;;;11.69;100.00;99666.78;5034148;28;20082;-77
2023/03/20 09:38:52;;;;;;;35.28;31.40;;;;;;;11.77;100.00;99661.19;5034678;28;20026;-77
2023/03/20 09:41:22;;;;;;;37.50;32.15;;;;;;;11.72;100.00;99640.53;5034361;28;20171;-76
2023/03/20 09:44:14;;;;;;;34.63;29.77;;;;;;;11.98;100.00;99660.09;5034579;28;20021;-77
2023/03/20 09:46:53;;;;;;;;;;;;;;;12.12;100.00;99656.75;5035017;28;20091;-77
2023/03/20 09:49:35;;;;;;;30.27;27.02;;;;;;;12.31;100.00;99662.69;5034181;28;19913;-76
2023/03/20 09:52:09;;;;;;;33.47;28.80;;;;;;;12.46;100.00;99659.25;5034194;28;20083;-77
2023/03/20 09:54:39;;;;;;;29.70;26.05;;;;;;;12.40;100.00;99635.25;5034193;28;20389;-77
2023/03/20 09:57:06;;;;;;;25.85;23.05;;;;;;;12.67;100.00;99664.22;5034188;28;20060;-76
2023/03/20 09:59:34;;;;;;;26.30;22.58;;;;;;;12.74;100.00;99660.34;5033764;28;20034;-77
2023/03/20 10:02:09;;;;;;;24.95;22.20;;;;;;;12.81;100.00;99640.81;5034124;28;20017;-77
2023/03/20 10:04:36;;;;;;;26.15;22.33;;;;;;;12.90;100.00;99621.16;5034047;28;20030;-77
2023/03/20 10:07:04;;;;;;;23.88;21.08;;;;;;;13.26;99.99;99656.59;5033901;28;20401;-77
2023/03/20 10:09:33;;;;;;;24.20;21.63;;;;;;;13.39;99.26;99657.56;5033715;28;20461;-77
2023/03/20 10:12:22;;;;;;;27.10;23.90;;;;;;;13.43;98.85;99638.16;5033661;28;20107;-77
2023/03/20 10:15:03;;;;;;;25.27;22.58;;;;;;;13.66;98.38;99649.91;5033581;28;20508;-77
2023/03/20 10:17:53;;;;;;;67.72;52.35;;;;;;;13.59;98.13;99622.41;5033662;28;20060;-77
2023/03/20 10:20:38;;;;;;;41.10;36.42;;;;;;;13.76;97.72;99637.09;5033448;28;20104;-77
2023/03/20 10:23:32;;;;;;;29.35;26.17;;;;;;;14.00;96.82;99638.25;5033723;28;20129;-77
2023/03/20 10:26:11;;;;;;;28.38;25.17;;;;;;;14.12;95.79;99626.19;5033699;28;20117;-76
2023/03/20 10:28:51;;;;;;;29.13;26.23;;;;;;;14.28;94.18;99639.97;5033289;28;20511;-76
2023/03/20 10:31:49;;;;;;;27.45;24.77;;;;;;;14.34;93.94;99642.25;5033410;28;20142;-77
2023/03/20 10:34:35;;;;;;;25.77;23.10;;;;;;;14.37;94.67;99633.38;5033281;28;20030;-77
2023/03/20 10:37:30;;;;;;;28.15;24.50;;;;;;;14.54;94.58;99632.31;5033275;28;20025;-77
2023/03/20 10:40:30;;;;;;;23.25;20.38;;;;;;;14.76;93.44;99632.63;5033243;28;20041;-77
2023/03/20 10:43:00;;;;;;;21.17;18.98;;;;;;;14.63;92.50;99595.88;5034100;28;20051;-77
2023/03/20 10:45:29;;;;;;;21.77;19.35;;;;;;;15.00;91.53;99626.72;5033165;28;20030;-77
2023/03/20 10:47:57;;;;;;;20.92;18.85;;;;;;;15.12;90.92;99618.91;5033350;28;20022;-77
2023/03/20 10:50:29;;;;;;;18.45;16.55;;;;;;;15.12;89.10;99611.03;5032862;28;20032;-77
2023/03/20 10:52:56;;;;;;;19.33;17.08;;;;;;;15.20;89.25;99615.78;5033199;28;20430;-77
2023/03/20 10:55:29;;;;;;;20.52;18.33;;;;;;;15.23;88.56;99615.59;5032763;28;20068;-77
2023/03/20 10:58:05;;;;;;;20.77;17.90;;;;;;;15.20;87.95;99627.09;5033002;28;20035;-77
2023/03/20 11:00:30;;;;;;;21.10;17.27;;;;;;;15.18;87.99;99630.78;5032630;28;20053;-77
2023/03/20 11:02:56;;;;;;;20.77;18.40;;;;;;;14.96;88.19;99624.34;5033015;28;20033;-77
2023/03/20 11:05:28;;;;;;;21.35;19.05;;;;;;;14.62;89.54;99603.81;5032585;28;20035;-77
2023/03/20 11:08:05;;;;;;;22.35;18.98;;;;;;;14.66;89.45;99621.91;5032654;28;20029;-77
2023/03/20 11:10:33;;;;;;;18.80;16.95;;;;;;;14.68;89.77;99621.81;5032711;28;20112;-77
2023/03/20 11:13:14;;;;;;;20.85;18.33;;;;;;;14.79;90.21;99623.72;5032812;28;20473;-77
2023/03/20 11:15:39;;;;;;;20.63;18.52;;;;;;;14.92;89.54;99616.75;5032778;28;20175;-77
2023/03/20 11:18:12;;;;;;;22.10;19.75;;;;;;;14.99;89.04;99615.41;5032494;28;20520;-77
2023/03/20 11:20:43;;;;;;;21.00;18.77;;;;;;;14.96;88.43;99607.75;5032485;28;20386;-77
2023/03/20 11:23:15;;;;;;;24.75;22.45;;;;;;;14.81;88.17;99587.78;5031358;28;20034;-77
2023/03/20 11:25:50;;;;;;;24.63;22.15;;;;;;;14.96;88.81;99626.97;5032494;28;20097;-77
2023/03/20 11:28:37;;;;;;;23.23;20.98;;;;;;;14.93;88.44;99614.03;5032300;28;20036;-77